createdAt,value
2019-03-02T00:01:27.409Z,11.63
2019-03-02T00:03:56.839Z,12.03
2019-03-02T00:06:26.364Z,12.97
2019-03-02T00:08:56.710Z,13.70
2019-03-02T00:11:26.894Z,14.57
2019-03-02T00:13:56.336Z,14.23
2019-03-02T00:16:25.793Z,12.20
2019-03-02T00:18:55.223Z,12.57
2019-03-02T00:21:27.632Z,14.90
2019-03-02T00:23:55.800Z,14.73
2019-03-02T00:26:25.294Z,14.60
2019-03-02T00:28:54.711Z,15.20
2019-03-02T00:31:24.181Z,16.07
2019-03-02T00:33:56.343Z,13.40
2019-03-02T00:36:24.716Z,17.40
2019-03-02T00:38:54.256Z,14.77
2019-03-02T00:41:23.733Z,19.07
2019-03-02T00:43:53.157Z,16.20
2019-03-02T00:46:23.863Z,19.17
2019-03-02T00:48:53.528Z,16.03
2019-03-02T00:51:22.986Z,17.47
2019-03-02T00:53:52.436Z,18.30
2019-03-02T00:56:21.864Z,18.73
2019-03-02T00:58:51.318Z,18.17
2019-03-02T01:01:20.794Z,16.73
2019-03-02T01:03:50.597Z,17.77
2019-03-02T01:06:20.910Z,18.43
2019-03-02T01:08:50.416Z,22.00
2019-03-02T01:11:19.841Z,22.60
2019-03-02T01:13:49.286Z,19.07
2019-03-02T01:16:20.008Z,20.90
2019-03-02T01:18:49.861Z,28.17
2019-03-02T01:21:19.295Z,22.57
2019-03-02T01:23:48.774Z,22.60
2019-03-02T01:26:20.617Z,21.00
2019-03-02T01:28:49.363Z,22.23
2019-03-02T01:31:18.821Z,21.30
2019-03-02T01:33:48.321Z,22.50
2019-03-02T01:36:17.730Z,22.60
2019-03-02T01:38:47.175Z,19.07
2019-03-02T01:41:17.798Z,21.20
2019-03-02T01:43:47.697Z,24.70
2019-03-02T01:46:17.133Z,25.33
2019-03-02T01:48:46.585Z,21.53
2019-03-02T01:51:16.068Z,26.53
2019-03-02T01:53:46.691Z,23.93
2019-03-02T01:56:16.301Z,24.37
2019-03-02T01:58:45.746Z,25.00
2019-03-02T02:01:15.267Z,25.67
2019-03-02T02:03:47.060Z,23.03
2019-03-02T02:06:16.220Z,25.03
2019-03-02T02:08:45.713Z,26.00
2019-03-02T02:11:18.012Z,23.30
2019-03-02T02:13:46.271Z,26.73
2019-03-02T02:16:15.681Z,25.20
2019-03-02T02:18:45.160Z,28.53
2019-03-02T02:21:14.609Z,21.33
2019-03-02T02:23:45.791Z,25.93
2019-03-02T02:26:16.205Z,20.67
2019-03-02T02:28:45.655Z,22.33
2019-03-02T02:31:15.127Z,24.30
2019-03-02T02:33:44.733Z,21.73
2019-03-02T02:36:18.841Z,24.40
2019-03-02T02:38:53.574Z,22.40
2019-03-02T02:41:22.066Z,23.33
2019-03-02T02:43:47.688Z,22.27
2019-03-02T02:46:17.127Z,22.60
2019-03-02T02:48:46.592Z,29.27
2019-03-02T02:51:16.008Z,24.70
2019-03-02T02:53:47.066Z,26.17
2019-03-02T02:56:19.356Z,25.13
2019-03-02T02:58:55.524Z,26.37
2019-03-02T03:01:20.214Z,28.87
2019-03-02T03:03:49.673Z,30.00
2019-03-02T03:06:19.136Z,26.20
2019-03-02T03:08:48.751Z,28.13
2019-03-02T03:11:19.972Z,29.80
2019-03-02T03:13:49.563Z,27.30
2019-03-02T03:16:19.059Z,24.70
2019-03-02T03:18:52.242Z,30.43
2019-03-02T03:21:26.832Z,30.80
2019-03-02T03:23:50.699Z,27.60
2019-03-02T03:26:20.117Z,32.00
2019-03-02T03:28:49.626Z,32.20
2019-03-02T03:31:23.151Z,32.63
2019-03-02T03:33:50.195Z,30.20
2019-03-02T03:36:19.597Z,28.23
2019-03-02T03:38:49.056Z,30.83
2019-03-02T03:41:18.520Z,33.10
2019-03-02T03:43:47.962Z,30.07
2019-03-02T03:46:22.346Z,30.50
2019-03-02T03:48:51.456Z,27.67
2019-03-02T03:51:19.606Z,32.90
2019-03-02T03:53:49.122Z,26.33
2019-03-02T03:56:18.905Z,29.60
2019-03-02T03:58:48.430Z,32.53
2019-03-02T04:01:19.229Z,31.03
2019-03-02T04:03:51.732Z,26.93
2019-03-02T04:06:23.515Z,33.40
2019-03-02T04:08:50.925Z,31.63
2019-03-02T04:11:20.412Z,34.63
2019-03-02T04:13:49.835Z,29.90
2019-03-02T04:16:20.805Z,35.73
2019-03-02T04:18:57.429Z,29.30
2019-03-02T04:21:31.728Z,29.30
2019-03-02T04:24:03.076Z,28.07
2019-03-02T04:26:36.677Z,32.23
2019-03-02T04:29:08.966Z,33.90
2019-03-02T04:31:34.442Z,34.70
2019-03-02T04:34:04.167Z,34.13
2019-03-02T04:36:33.628Z,28.97
2019-03-02T04:39:04.614Z,31.27
2019-03-02T04:41:35.589Z,29.53
2019-03-02T04:44:05.340Z,32.47
2019-03-02T04:46:34.789Z,30.77
2019-03-02T04:49:04.209Z,32.27
2019-03-02T04:51:35.070Z,33.10
2019-03-02T04:54:04.730Z,31.33
2019-03-02T04:56:34.244Z,31.57
2019-03-02T04:59:03.692Z,30.87
2019-03-02T05:01:33.162Z,25.40
2019-03-02T05:04:02.615Z,27.97
2019-03-02T05:06:32.091Z,31.10
2019-03-02T05:09:01.530Z,27.80
2019-03-02T05:11:31.011Z,30.00
2019-03-02T05:14:00.709Z,30.60
2019-03-02T05:16:31.551Z,41.20
2019-03-02T05:19:00.974Z,28.67
2019-03-02T05:21:30.466Z,35.50
2019-03-02T05:24:03.389Z,33.37
2019-03-02T05:26:30.998Z,34.67
2019-03-02T05:29:00.471Z,31.13
2019-03-02T05:31:29.924Z,29.93
2019-03-02T05:34:00.792Z,31.37
2019-03-02T05:36:30.501Z,31.47
2019-03-02T05:38:59.987Z,29.83
2019-03-02T05:41:29.473Z,30.33
2019-03-02T05:43:58.947Z,24.97
2019-03-02T05:46:28.414Z,29.67
2019-03-02T05:48:57.830Z,27.10
2019-03-02T05:51:27.324Z,28.80
2019-03-02T05:53:56.751Z,31.93
2019-03-02T05:56:29.293Z,27.33
2019-03-02T05:58:57.286Z,24.33
2019-03-02T06:01:26.756Z,23.77
2019-03-02T06:03:56.213Z,26.73
2019-03-02T06:06:25.638Z,22.73
2019-03-02T06:08:55.080Z,22.47
2019-03-02T06:11:24.534Z,24.07
2019-03-02T06:13:53.977Z,23.00
2019-03-02T06:16:23.452Z,25.70
2019-03-02T06:18:52.907Z,23.20
2019-03-02T06:21:22.349Z,25.57
2019-03-02T06:23:51.783Z,24.87
2019-03-02T06:26:21.239Z,24.00
2019-03-02T06:28:50.705Z,28.27
2019-03-02T06:31:20.172Z,26.13
2019-03-02T06:33:49.618Z,20.33
2019-03-02T06:36:19.058Z,26.40
2019-03-02T06:38:48.500Z,26.30
2019-03-02T06:41:17.942Z,25.27
2019-03-02T06:43:47.403Z,25.90
2019-03-02T06:46:20.225Z,25.77
2019-03-02T06:48:48.019Z,25.73
2019-03-02T06:51:17.507Z,26.87
2019-03-02T06:53:46.920Z,24.33
2019-03-02T06:56:16.433Z,26.57
2019-03-02T06:58:45.972Z,23.90
2019-03-02T07:01:15.394Z,28.53
2019-03-02T07:03:45.828Z,25.83
2019-03-02T07:06:16.113Z,27.77
2019-03-02T07:08:45.598Z,30.00
2019-03-02T07:11:15.024Z,30.33
2019-03-02T07:13:44.542Z,33.63
2019-03-02T07:16:16.524Z,33.60
2019-03-02T07:18:59.347Z,29.47
2019-03-02T07:21:28.831Z,34.03
2019-03-02T07:23:58.295Z,32.30
2019-03-02T07:26:27.719Z,33.47
2019-03-02T07:28:57.177Z,32.63
2019-03-02T07:31:26.600Z,34.80
2019-03-02T07:33:56.057Z,35.33
2019-03-02T07:36:27.674Z,31.20
2019-03-02T07:38:57.355Z,27.57
2019-03-02T07:41:26.874Z,33.40
2019-03-02T07:43:56.406Z,29.80
2019-03-02T07:46:25.823Z,31.60
2019-03-02T07:48:55.292Z,30.93
2019-03-02T07:51:24.725Z,33.30
2019-03-02T07:53:54.171Z,32.10
2019-03-02T07:56:23.653Z,35.00
2019-03-02T07:58:54.887Z,34.60
2019-03-02T08:01:24.178Z,30.97
2019-03-02T08:03:55.907Z,34.37
2019-03-02T08:06:25.720Z,38.33
2019-03-02T08:08:55.190Z,35.80
2019-03-02T08:11:24.697Z,38.83
2019-03-02T08:13:54.188Z,36.20
2019-03-02T08:16:23.655Z,32.83
2019-03-02T08:18:53.121Z,37.67
2019-03-02T08:21:22.542Z,40.80
2019-03-02T08:23:52.123Z,35.70
2019-03-02T08:26:22.562Z,35.73
2019-03-02T08:28:52.246Z,34.47
2019-03-02T08:31:21.671Z,32.20
2019-03-02T08:33:51.125Z,34.87
2019-03-02T08:36:20.649Z,37.53
2019-03-02T08:38:50.202Z,32.43
2019-03-02T08:41:19.628Z,33.63
2019-03-02T08:43:49.126Z,40.20
2019-03-02T08:46:18.546Z,32.70
2019-03-02T08:48:48.005Z,35.57
2019-03-02T08:51:17.557Z,33.37
2019-03-02T08:53:47.034Z,39.47
2019-03-02T08:56:16.528Z,31.67
2019-03-02T08:58:46.602Z,33.70
2019-03-02T09:01:18.720Z,33.67
2019-03-02T09:03:47.198Z,27.23
2019-03-02T09:06:16.626Z,31.57
2019-03-02T09:08:46.108Z,29.73
2019-03-02T09:11:15.676Z,31.30
2019-03-02T09:13:45.137Z,30.70
2019-03-02T09:16:14.645Z,29.87
2019-03-02T09:18:45.807Z,29.33
2019-03-02T09:21:15.356Z,26.40
2019-03-02T09:23:44.821Z,31.37
2019-03-02T09:26:15.050Z,34.17
2019-03-02T09:28:44.621Z,32.53
2019-03-02T09:31:14.058Z,30.83
2019-03-02T09:33:43.498Z,30.83
2019-03-02T09:36:12.995Z,34.47
2019-03-02T09:38:42.475Z,28.77
2019-03-02T09:41:11.946Z,28.83
2019-03-02T09:43:41.508Z,28.77
2019-03-02T09:46:13.260Z,30.57
2019-03-02T09:48:42.744Z,27.23
2019-03-02T09:51:12.400Z,38.20
2019-03-02T09:53:43.591Z,27.83
2019-03-02T09:56:13.293Z,30.93
2019-03-02T09:58:42.762Z,30.80
2019-03-02T10:01:12.218Z,26.13
2019-03-02T10:03:41.666Z,24.37
2019-03-02T10:06:11.124Z,28.93
2019-03-02T10:08:42.360Z,30.50
2019-03-02T10:11:12.002Z,26.77
2019-03-02T10:13:41.526Z,33.93
2019-03-02T10:16:11.011Z,32.53
2019-03-02T10:18:40.897Z,28.60
2019-03-02T10:21:10.354Z,32.87
2019-03-02T10:23:42.035Z,30.37
2019-03-02T10:26:11.096Z,31.40
2019-03-02T10:28:40.605Z,29.43
2019-03-02T10:31:10.112Z,33.40
2019-03-02T10:33:39.528Z,24.63
2019-03-02T10:36:08.997Z,24.23
2019-03-02T10:38:38.433Z,29.90
2019-03-02T10:41:07.986Z,24.37
2019-03-02T10:43:37.413Z,27.93
2019-03-02T10:46:06.961Z,26.57
2019-03-02T10:48:36.480Z,22.93
2019-03-02T10:51:06.160Z,25.27
2019-03-02T10:53:35.586Z,27.23
2019-03-02T10:56:06.005Z,28.93
2019-03-02T10:58:38.645Z,24.50
2019-03-02T11:01:08.540Z,21.10
2019-03-02T11:03:38.150Z,21.73
2019-03-02T11:06:23.371Z,20.17
2019-03-02T11:09:19.713Z,24.47
2019-03-02T11:12:02.947Z,21.53
2019-03-02T11:14:53.968Z,22.93
2019-03-02T11:17:42.601Z,19.60
2019-03-02T11:20:20.813Z,22.57
2019-03-02T11:23:10.565Z,19.87
2019-03-02T11:25:50.881Z,21.03
2019-03-02T11:28:35.264Z,22.03
2019-03-02T11:31:23.628Z,23.03
2019-03-02T11:34:07.047Z,24.03
2019-03-02T11:36:55.488Z,20.23
2019-03-02T11:39:40.094Z,20.70
2019-03-02T11:42:37.834Z,17.50
2019-03-02T11:45:26.422Z,19.13
2019-03-02T11:48:33.287Z,22.30
2019-03-02T11:51:24.060Z,21.20
2019-03-02T11:54:19.778Z,22.43
2019-03-02T11:57:07.794Z,20.90
2019-03-02T12:00:01.612Z,15.97
2019-03-02T12:02:47.362Z,15.37
2019-03-02T12:05:45.100Z,20.50
2019-03-02T12:08:32.653Z,21.13
2019-03-02T12:11:23.976Z,18.60
2019-03-02T12:14:11.367Z,20.95
2019-03-02T12:17:04.474Z,21.30
2019-03-02T12:20:07.385Z,19.40
2019-03-02T12:22:52.106Z,15.90
2019-03-02T12:25:43.529Z,20.23
2019-03-02T12:28:40.164Z,19.33
2019-03-02T12:31:20.731Z,18.43
2019-03-02T12:34:10.419Z,21.27
2019-03-02T12:36:57.449Z,20.50
2019-03-02T12:39:48.738Z,17.20
2019-03-02T12:42:40.214Z,21.57
2019-03-02T12:45:35.034Z,20.30
2019-03-02T12:48:23.755Z,16.87
2019-03-02T12:51:26.838Z,19.50
2019-03-02T12:54:24.785Z,19.07
2019-03-02T12:57:12.853Z,21.47
2019-03-02T13:00:07.478Z,22.60
2019-03-02T13:03:08.160Z,15.60
2019-03-02T13:06:05.341Z,22.60
2019-03-02T13:08:50.926Z,21.63
2019-03-02T13:11:39.274Z,19.00
2019-03-02T13:14:28.877Z,18.90
2019-03-02T13:17:16.556Z,21.03
2019-03-02T13:20:07.147Z,19.57
2019-03-02T13:22:54.178Z,18.30
2019-03-02T13:25:38.553Z,18.10
2019-03-02T13:28:16.958Z,18.57
2019-03-02T13:31:07.696Z,17.70
2019-03-02T13:33:53.067Z,17.20
2019-03-02T13:36:43.960Z,22.73
2019-03-02T13:39:39.682Z,17.67
2019-03-02T13:42:31.063Z,20.10
2019-03-02T13:45:20.461Z,17.53
2019-03-02T13:48:25.658Z,17.97
2019-03-02T13:51:12.097Z,18.63
2019-03-02T13:53:53.528Z,19.20
2019-03-02T13:56:41.797Z,15.77
2019-03-02T13:59:42.432Z,19.33
2019-03-02T14:02:23.853Z,16.90
2019-03-02T14:05:12.280Z,16.73
2019-03-02T14:08:04.186Z,18.97
2019-03-02T14:10:49.810Z,16.90
2019-03-02T14:13:41.053Z,19.60
2019-03-02T14:16:28.076Z,18.60
2019-03-02T14:19:31.446Z,20.27
2019-03-02T14:22:34.858Z,17.53
2019-03-02T14:25:24.706Z,18.00
2019-03-02T14:28:15.861Z,17.30
2019-03-02T14:30:57.219Z,19.00
2019-03-02T14:33:50.873Z,18.60
2019-03-02T14:36:34.641Z,23.63
2019-03-02T14:39:18.384Z,15.20
2019-03-02T14:41:59.407Z,18.70
2019-03-02T14:44:44.815Z,23.27
2019-03-02T14:47:24.633Z,15.53
2019-03-02T14:50:28.313Z,20.77
2019-03-02T14:53:19.977Z,15.80
2019-03-02T14:56:01.267Z,20.50
2019-03-02T14:58:42.981Z,18.20
2019-03-02T15:01:21.800Z,19.20
2019-03-02T15:04:06.160Z,15.10
2019-03-02T15:06:56.067Z,22.57
2019-03-02T15:09:45.560Z,19.00
2019-03-02T15:12:34.532Z,22.17
2019-03-02T15:15:16.585Z,22.43
2019-03-02T15:18:07.510Z,17.50
2019-03-02T15:21:02.143Z,17.63
2019-03-02T15:23:45.289Z,17.67
2019-03-02T15:26:24.227Z,18.07
2019-03-02T15:29:05.664Z,17.67
2019-03-02T15:31:52.645Z,14.63
2019-03-02T15:34:32.494Z,19.67
2019-03-02T15:37:08.330Z,18.23
2019-03-02T15:40:03.024Z,17.43
2019-03-02T15:42:58.659Z,19.10
2019-03-02T15:45:34.375Z,16.80
2019-03-02T15:48:17.534Z,20.20
2019-03-02T15:51:06.091Z,17.70
2019-03-02T15:54:00.564Z,16.07
2019-03-02T15:56:48.921Z,16.50
2019-03-02T15:59:42.184Z,15.70
2019-03-02T16:02:45.988Z,16.80
2019-03-02T16:05:34.370Z,23.27
2019-03-02T16:08:31.911Z,16.90
2019-03-02T16:11:32.155Z,16.47
2019-03-02T16:14:19.756Z,17.10
2019-03-02T16:17:06.747Z,25.17
2019-03-02T16:19:46.635Z,25.33
2019-03-02T16:22:30.032Z,16.10
2019-03-02T16:25:06.123Z,15.20
2019-03-02T16:27:50.029Z,22.67
2019-03-02T16:30:50.772Z,17.23
2019-03-02T16:33:39.110Z,20.30
2019-03-02T16:36:36.224Z,18.83
2019-03-02T16:39:24.800Z,17.80
2019-03-02T16:42:13.188Z,15.27
2019-03-02T16:45:05.157Z,14.70
2019-03-02T16:47:51.688Z,17.30
2019-03-02T16:50:30.677Z,17.63
2019-03-02T16:53:22.522Z,12.27
2019-03-02T16:56:13.024Z,17.97
2019-03-02T16:59:00.417Z,15.43
2019-03-02T17:01:52.516Z,13.33
2019-03-02T17:04:44.204Z,17.40
2019-03-02T17:07:44.857Z,16.80
2019-03-02T17:10:32.857Z,15.27
2019-03-02T17:13:17.594Z,16.07
2019-03-02T17:16:04.640Z,15.97
2019-03-02T17:18:44.049Z,18.50
2019-03-02T17:21:30.839Z,17.57
2019-03-02T17:24:23.136Z,16.20
2019-03-02T17:27:07.966Z,22.17
2019-03-02T17:29:55.280Z,15.77
2019-03-02T17:32:34.597Z,15.20
2019-03-02T17:35:21.018Z,15.57
2019-03-02T17:38:12.010Z,17.10
2019-03-02T17:41:07.457Z,14.70
2019-03-02T17:44:00.188Z,15.53
2019-03-02T17:47:07.980Z,23.63
2019-03-02T17:50:01.580Z,27.03
2019-03-02T17:52:57.172Z,42.10
2019-03-02T17:55:56.896Z,40.90
2019-03-02T17:59:00.468Z,21.30
2019-03-02T18:01:46.181Z,26.30
2019-03-02T18:04:35.397Z,55.27
2019-03-02T18:07:24.712Z,38.30
2019-03-02T18:10:19.322Z,45.73
2019-03-02T18:13:07.192Z,38.57
2019-03-02T18:15:55.680Z,31.63
2019-03-02T18:18:28.007Z,21.83
2019-03-02T18:20:57.342Z,32.00
2019-03-02T18:23:26.874Z,45.83
2019-03-02T18:25:56.415Z,25.20
2019-03-02T18:28:25.882Z,24.07
2019-03-02T18:30:57.323Z,17.03
2019-03-02T18:33:35.116Z,17.70
2019-03-02T18:36:04.557Z,15.70
2019-03-02T18:38:34.019Z,17.00
2019-03-02T18:41:03.590Z,19.80
2019-03-02T18:43:33.041Z,14.97
2019-03-02T18:46:02.472Z,17.10
2019-03-02T18:48:49.821Z,18.67
2019-03-02T18:51:44.962Z,17.70
2019-03-02T18:54:15.751Z,19.60
2019-03-02T18:56:45.663Z,49.03
2019-03-02T18:59:15.102Z,18.20
2019-03-02T19:01:45.599Z,16.80
2019-03-02T19:04:16.163Z,14.87
2019-03-02T19:06:45.607Z,14.57
2019-03-02T19:09:15.888Z,18.50
2019-03-02T19:11:45.344Z,21.73
2019-03-02T19:14:17.027Z,17.13
2019-03-02T19:16:45.847Z,15.63
2019-03-02T19:19:15.300Z,17.27
2019-03-02T19:21:44.729Z,14.37
2019-03-02T19:24:14.225Z,17.73
2019-03-02T19:26:43.637Z,15.10
2019-03-02T19:29:13.085Z,18.10
2019-03-02T19:31:42.505Z,13.67
2019-03-02T19:34:11.994Z,17.63
2019-03-02T19:36:41.429Z,16.80
2019-03-02T19:39:23.503Z,16.53
2019-03-02T19:41:52.955Z,15.77
2019-03-02T19:44:22.431Z,15.30
2019-03-02T19:46:53.239Z,17.80
2019-03-02T19:49:22.693Z,15.00
2019-03-02T19:51:52.129Z,20.13
2019-03-02T19:54:21.597Z,18.80
2019-03-02T19:56:51.089Z,13.53
2019-03-02T19:59:20.585Z,18.80
2019-03-02T20:01:50.060Z,19.90
2019-03-02T20:04:20.614Z,15.10
2019-03-02T20:06:50.224Z,16.83
2019-03-02T20:09:19.719Z,15.87
2019-03-02T20:11:49.474Z,13.50
2019-03-02T20:14:18.925Z,13.60
2019-03-02T20:16:48.404Z,16.50
2019-03-02T20:19:17.854Z,11.00
2019-03-02T20:21:47.306Z,16.90
2019-03-02T20:24:16.885Z,16.03
2019-03-02T20:26:46.402Z,15.83
2019-03-02T20:29:15.955Z,15.50
2019-03-02T20:31:45.686Z,15.30
2019-03-02T20:34:15.134Z,15.80
2019-03-02T20:36:45.730Z,15.17
2019-03-02T20:39:15.141Z,14.40
2019-03-02T20:41:44.563Z,12.77
2019-03-02T20:44:14.012Z,14.87
2019-03-02T20:46:43.465Z,15.83
2019-03-02T20:49:12.913Z,15.13
2019-03-02T20:51:42.342Z,15.27
2019-03-02T20:54:12.119Z,16.20
2019-03-02T20:56:41.581Z,14.73
2019-03-02T20:59:11.051Z,17.00
2019-03-02T21:01:40.777Z,15.73
2019-03-02T21:04:11.254Z,15.40
2019-03-02T21:06:40.761Z,15.07
2019-03-02T21:09:10.576Z,17.00
2019-03-02T21:11:40.081Z,14.50
2019-03-02T21:14:09.541Z,15.80
2019-03-02T21:16:39.080Z,21.87
2019-03-02T21:19:08.535Z,16.50
2019-03-02T21:21:37.991Z,16.43
2019-03-02T21:24:07.447Z,18.40
2019-03-02T21:26:36.864Z,14.40
2019-03-02T21:29:06.357Z,14.93
2019-03-02T21:31:35.781Z,18.27
2019-03-02T21:34:05.406Z,18.97
2019-03-02T21:36:35.050Z,19.17
2019-03-02T21:39:07.128Z,18.77
2019-03-02T21:41:36.579Z,17.10
2019-03-02T21:44:07.184Z,17.07
2019-03-02T21:46:36.664Z,20.67
2019-03-02T21:49:06.159Z,17.40
2019-03-02T21:51:35.634Z,16.80
2019-03-02T21:54:05.249Z,20.50
2019-03-02T21:56:34.716Z,17.73
2019-03-02T21:59:04.230Z,18.73
2019-03-02T22:01:33.716Z,15.70
2019-03-02T22:04:03.187Z,19.77
2019-03-02T22:06:32.677Z,19.30
2019-03-02T22:09:02.138Z,16.43
2019-03-02T22:11:31.597Z,16.13
2019-03-02T22:14:01.016Z,21.47
2019-03-02T22:16:30.474Z,16.80
2019-03-02T22:18:59.901Z,15.03
2019-03-02T22:21:29.360Z,14.43
2019-03-02T22:23:58.778Z,17.63
2019-03-02T22:26:28.285Z,23.17
2019-03-02T22:28:57.715Z,16.00
2019-03-02T22:31:27.165Z,14.13
2019-03-02T22:33:56.592Z,12.27
2019-03-02T22:36:26.070Z,16.33
2019-03-02T22:38:55.530Z,17.60
2019-03-02T22:41:24.977Z,12.33
2019-03-02T22:43:54.401Z,14.60
2019-03-02T22:46:23.967Z,13.40
2019-03-02T22:48:54.861Z,11.73
2019-03-02T22:51:24.336Z,12.13
2019-03-02T22:53:53.757Z,14.60
2019-03-02T22:56:23.237Z,11.17
2019-03-02T22:58:51.784Z,14.00
2019-03-02T23:01:50.654Z,10.30
2019-03-02T23:04:20.133Z,16.80
2019-03-02T23:06:50.103Z,14.33
2019-03-02T23:09:19.591Z,12.33
2019-03-02T23:11:49.033Z,13.93
2019-03-02T23:14:18.464Z,12.10
2019-03-02T23:16:47.939Z,11.03
2019-03-02T23:19:17.384Z,11.43
2019-03-02T23:21:46.892Z,9.63
2019-03-02T23:24:16.322Z,10.67
2019-03-02T23:26:45.740Z,13.37
2019-03-02T23:29:15.314Z,7.93
2019-03-02T23:31:48.096Z,10.40
2019-03-02T23:34:17.565Z,14.10
2019-03-02T23:36:47.007Z,8.73
2019-03-02T23:39:16.486Z,10.07
2019-03-02T23:41:45.907Z,10.67
2019-03-02T23:44:15.359Z,9.17
2019-03-02T23:46:44.773Z,9.47
2019-03-02T23:49:14.335Z,11.63
2019-03-02T23:51:43.803Z,11.53
2019-03-02T23:54:13.262Z,9.33
2019-03-02T23:56:42.698Z,9.67
2019-03-02T23:59:12.167Z,10.73
